createdAt,value
2019-01-22T00:02:25.025Z,19.33
2019-01-22T00:04:53.276Z,18.10
2019-01-22T00:07:22.452Z,17.57
2019-01-22T00:09:50.707Z,18.33
2019-01-22T00:12:18.928Z,18.37
2019-01-22T00:14:47.176Z,18.03
2019-01-22T00:17:15.404Z,19.23
2019-01-22T00:19:43.730Z,16.80
2019-01-22T00:22:12.352Z,16.10
2019-01-22T00:24:40.600Z,17.90
2019-01-22T00:27:08.816Z,16.93
2019-01-22T00:29:37.068Z,16.80
2019-01-22T00:32:05.356Z,17.53
2019-01-22T00:34:33.608Z,18.40
2019-01-22T00:37:02.132Z,17.27
2019-01-22T00:39:30.381Z,17.50
2019-01-22T00:41:58.604Z,18.13
2019-01-22T00:44:26.852Z,17.57
2019-01-22T00:46:55.073Z,20.20
2019-01-22T00:49:23.394Z,16.60
2019-01-22T00:51:51.917Z,18.77
2019-01-22T00:54:20.168Z,19.13
2019-01-22T00:56:48.392Z,18.10
2019-01-22T00:59:16.646Z,17.43
2019-01-22T01:01:44.870Z,20.27
2019-01-22T01:04:13.119Z,19.20
2019-01-22T01:06:41.336Z,19.60
2019-01-22T01:09:09.651Z,9.27
2019-01-22T01:11:37.881Z,21.33
2019-01-22T01:14:06.196Z,19.50
2019-01-22T01:16:34.416Z,20.00
2019-01-22T01:19:02.644Z,11.40
2019-01-22T01:21:30.960Z,20.13
2019-01-22T01:23:59.256Z,17.43
2019-01-22T01:26:27.579Z,19.03
2019-01-22T01:28:55.800Z,19.50
2019-01-22T01:31:24.120Z,20.80
2019-01-22T01:33:52.344Z,22.57
2019-01-22T01:36:20.593Z,18.80
2019-01-22T01:38:48.820Z,20.70
2019-01-22T01:41:17.132Z,18.30
2019-01-22T01:43:45.360Z,19.87
2019-01-22T01:46:13.676Z,21.20
2019-01-22T01:48:41.898Z,20.57
2019-01-22T01:51:10.348Z,18.73
2019-01-22T01:53:38.568Z,20.60
2019-01-22T01:56:06.888Z,21.80
2019-01-22T01:58:35.114Z,20.20
2019-01-22T02:01:03.364Z,21.10
2019-01-22T02:03:31.584Z,20.80
2019-01-22T02:06:00.127Z,21.43
2019-01-22T02:08:28.421Z,19.87
2019-01-22T02:10:56.740Z,23.83
2019-01-22T02:13:25.033Z,15.20
2019-01-22T02:15:54.824Z,21.70
2019-01-22T02:18:24.591Z,23.80
2019-01-22T02:21:00.129Z,22.43
2019-01-22T02:23:30.797Z,23.23
2019-01-22T02:26:18.953Z,22.70
2019-01-22T02:28:54.540Z,21.97
2019-01-22T02:31:24.324Z,22.57
2019-01-22T02:34:03.135Z,20.90
2019-01-22T02:36:45.137Z,23.23
2019-01-22T02:39:17.815Z,22.57
2019-01-22T02:41:47.606Z,21.90
2019-01-22T02:44:29.174Z,22.53
2019-01-22T02:47:01.921Z,18.87
2019-01-22T02:49:47.004Z,19.57
2019-01-22T02:52:16.792Z,19.37
2019-01-22T02:54:49.233Z,17.07
2019-01-22T02:57:24.830Z,19.93
2019-01-22T03:00:00.640Z,20.73
2019-01-22T03:02:48.552Z,17.20
2019-01-22T03:05:21.040Z,21.17
2019-01-22T03:07:56.560Z,21.50
2019-01-22T03:10:38.268Z,20.07
2019-01-22T03:13:20.064Z,22.37
2019-01-22T03:16:06.566Z,19.90
2019-01-22T03:18:48.644Z,19.93
2019-01-22T03:21:33.401Z,22.27
2019-01-22T03:24:19.668Z,20.77
2019-01-22T03:26:55.428Z,21.73
2019-01-22T03:29:25.220Z,19.90
2019-01-22T03:32:11.805Z,21.30
2019-01-22T03:34:41.883Z,19.63
2019-01-22T03:37:11.656Z,19.07
2019-01-22T03:39:47.356Z,23.00
2019-01-22T03:42:35.092Z,17.93
2019-01-22T03:45:19.838Z,22.93
2019-01-22T03:48:01.671Z,22.20
2019-01-22T03:50:49.871Z,21.17
2019-01-22T03:53:31.806Z,18.63
2019-01-22T03:56:04.489Z,18.27
2019-01-22T03:58:32.740Z,21.43
2019-01-22T04:01:02.536Z,20.03
2019-01-22T04:03:30.865Z,21.17
2019-01-22T04:05:59.880Z,18.40
2019-01-22T04:08:28.224Z,21.27
2019-01-22T04:10:57.620Z,20.40
2019-01-22T04:13:25.850Z,20.97
2019-01-22T04:15:54.105Z,22.07
2019-01-22T04:18:22.324Z,22.50
2019-01-22T04:20:50.953Z,21.57
2019-01-22T04:23:21.448Z,21.27
2019-01-22T04:25:51.240Z,22.30
2019-01-22T04:28:37.734Z,24.10
2019-01-22T04:31:07.521Z,22.60
2019-01-22T04:33:37.280Z,23.23
2019-01-22T04:36:19.132Z,21.37
2019-01-22T04:38:51.793Z,22.13
2019-01-22T04:41:33.883Z,22.47
2019-01-22T04:44:03.652Z,21.40
2019-01-22T04:46:36.142Z,21.90
2019-01-22T04:49:17.933Z,22.13
2019-01-22T04:51:50.622Z,21.43
2019-01-22T04:54:20.384Z,21.93
2019-01-22T04:56:50.193Z,22.93
2019-01-22T04:59:32.184Z,20.47
2019-01-22T05:02:01.978Z,22.10
2019-01-22T05:04:34.418Z,22.70
2019-01-22T05:07:04.204Z,22.60
2019-01-22T05:09:52.152Z,20.70
2019-01-22T05:12:21.942Z,21.23
2019-01-22T05:14:51.706Z,22.00
2019-01-22T05:17:24.640Z,21.67
2019-01-22T05:19:54.400Z,23.17
2019-01-22T05:22:27.096Z,23.03
2019-01-22T05:24:56.859Z,25.10
2019-01-22T05:27:26.649Z,23.80
2019-01-22T05:30:14.471Z,21.63
2019-01-22T05:33:01.201Z,22.77
2019-01-22T05:35:36.721Z,23.07
2019-01-22T05:38:06.813Z,21.87
2019-01-22T05:40:53.067Z,22.27
2019-01-22T05:43:25.960Z,21.13
2019-01-22T05:45:58.652Z,21.97
2019-01-22T05:48:28.440Z,19.83
2019-01-22T05:50:58.197Z,22.70
2019-01-22T05:53:27.990Z,24.53
2019-01-22T05:55:57.743Z,22.73
2019-01-22T05:58:42.653Z,22.33
2019-01-22T06:01:12.652Z,21.40
2019-01-22T06:03:42.436Z,21.20
2019-01-22T06:06:12.196Z,24.40
2019-01-22T06:08:50.864Z,23.30
2019-01-22T06:11:37.144Z,23.50
2019-01-22T06:14:21.969Z,20.87
2019-01-22T06:16:51.740Z,23.97
2019-01-22T06:19:24.345Z,23.00
2019-01-22T06:22:10.612Z,22.60
2019-01-22T06:24:40.405Z,22.70
2019-01-22T06:27:12.968Z,22.33
2019-01-22T06:30:00.881Z,23.93
2019-01-22T06:32:30.639Z,23.60
2019-01-22T06:35:15.829Z,22.27
2019-01-22T06:37:45.616Z,20.00
2019-01-22T06:40:18.120Z,22.37
2019-01-22T06:42:50.924Z,23.17
2019-01-22T06:45:23.744Z,22.03
2019-01-22T06:47:53.505Z,21.43
2019-01-22T06:50:39.788Z,20.80
2019-01-22T06:53:12.261Z,17.70
2019-01-22T06:55:44.709Z,15.57
2019-01-22T06:58:26.332Z,17.93
2019-01-22T07:00:58.833Z,15.43
2019-01-22T07:03:46.971Z,17.20
2019-01-22T07:06:19.440Z,17.70
2019-01-22T07:09:06.143Z,16.10
2019-01-22T07:11:48.159Z,16.67
2019-01-22T07:14:20.817Z,15.13
2019-01-22T07:16:53.245Z,16.33
2019-01-22T07:19:28.989Z,14.57
2019-01-22T07:22:04.720Z,22.35
2019-01-22T07:24:34.503Z,20.33
2019-01-22T07:27:04.278Z,17.27
2019-01-22T07:29:36.942Z,16.10
2019-01-22T07:32:15.459Z,16.40
2019-01-22T07:34:48.171Z,13.07
2019-01-22T07:37:20.912Z,10.07
2019-01-22T07:39:56.460Z,14.17
2019-01-22T07:42:26.244Z,16.00
2019-01-22T07:44:58.695Z,15.17
2019-01-22T07:47:28.480Z,18.47
2019-01-22T07:49:58.246Z,17.63
2019-01-22T07:52:28.041Z,17.43
2019-01-22T07:54:57.801Z,18.30
2019-01-22T07:57:39.580Z,19.00
2019-01-22T08:00:15.364Z,17.77
2019-01-22T08:02:54.161Z,14.73
2019-01-22T08:05:34.129Z,18.13
2019-01-22T08:08:08.225Z,18.43
2019-01-22T08:10:44.009Z,17.80
2019-01-22T08:13:32.036Z,17.77
2019-01-22T08:16:04.836Z,19.77
2019-01-22T08:18:40.752Z,18.70
2019-01-22T08:21:13.296Z,16.73
2019-01-22T08:23:52.276Z,19.93
2019-01-22T08:26:22.065Z,20.10
2019-01-22T08:28:54.536Z,16.83
2019-01-22T08:31:27.097Z,18.90
2019-01-22T08:34:13.729Z,19.57
2019-01-22T08:36:46.428Z,19.27
2019-01-22T08:39:34.339Z,19.77
2019-01-22T08:42:10.128Z,19.40
2019-01-22T08:44:45.668Z,19.63
2019-01-22T08:47:15.456Z,18.67
2019-01-22T08:49:48.144Z,17.93
2019-01-22T08:52:17.932Z,16.63
2019-01-22T08:54:50.897Z,18.87
2019-01-22T08:57:29.652Z,19.43
2019-01-22T09:00:05.352Z,19.30
2019-01-22T09:02:52.018Z,18.67
2019-01-22T09:05:21.774Z,18.70
2019-01-22T09:08:00.328Z,16.73
2019-01-22T09:10:30.092Z,17.80
2019-01-22T09:12:59.881Z,20.87
2019-01-22T09:15:41.864Z,20.47
2019-01-22T09:18:26.657Z,19.97
2019-01-22T09:20:59.116Z,18.57
2019-01-22T09:23:28.909Z,26.42
2019-01-22T09:25:58.673Z,19.43
2019-01-22T09:28:28.464Z,20.00
2019-01-22T09:31:01.329Z,18.77
2019-01-22T09:33:43.096Z,19.13
2019-01-22T09:36:16.067Z,20.17
2019-01-22T09:38:44.324Z,19.97
2019-01-22T09:41:12.545Z,15.47
2019-01-22T09:43:40.981Z,16.27
2019-01-22T09:46:09.272Z,18.83
2019-01-22T09:48:37.496Z,19.47
2019-01-22T09:51:05.817Z,21.67
2019-01-22T09:53:34.040Z,17.90
2019-01-22T09:56:02.361Z,17.07
2019-01-22T09:58:30.625Z,19.17
2019-01-22T10:00:58.838Z,19.73
2019-01-22T10:03:27.056Z,16.87
2019-01-22T10:05:55.310Z,18.20
2019-01-22T10:08:23.537Z,18.03
2019-01-22T10:10:51.860Z,19.47
2019-01-22T10:13:20.088Z,19.50
2019-01-22T10:15:48.339Z,18.30
2019-01-22T10:18:16.629Z,17.67
2019-01-22T10:20:44.885Z,16.33
2019-01-22T10:23:14.069Z,18.27
2019-01-22T10:25:42.468Z,20.07
2019-01-22T10:28:10.692Z,20.37
2019-01-22T10:30:38.944Z,19.67
2019-01-22T10:33:07.168Z,19.30
2019-01-22T10:35:35.484Z,21.10
2019-01-22T10:38:04.081Z,19.80
2019-01-22T10:40:32.337Z,18.73
2019-01-22T10:43:00.628Z,20.87
2019-01-22T10:45:28.884Z,22.27
2019-01-22T10:47:57.181Z,20.70
2019-01-22T10:50:25.505Z,22.40
2019-01-22T10:52:53.733Z,21.83
2019-01-22T10:55:22.057Z,20.27
2019-01-22T10:57:50.357Z,19.03
2019-01-22T11:00:25.818Z,20.00
2019-01-22T11:02:54.208Z,18.57
2019-01-22T11:05:23.996Z,19.80
2019-01-22T11:07:52.219Z,19.63
2019-01-22T11:10:20.517Z,19.73
2019-01-22T11:12:48.768Z,19.80
2019-01-22T11:15:16.988Z,17.73
2019-01-22T11:17:45.246Z,16.80
2019-01-22T11:20:15.245Z,19.47
2019-01-22T11:22:43.503Z,17.43
2019-01-22T11:25:13.197Z,17.27
2019-01-22T11:27:41.449Z,18.63
2019-01-22T11:30:14.157Z,17.57
2019-01-22T11:32:42.412Z,12.10
2019-01-22T11:35:12.400Z,16.80
2019-01-22T11:37:40.705Z,17.80
2019-01-22T11:40:10.473Z,19.10
2019-01-22T11:42:38.724Z,15.03
2019-01-22T11:45:07.617Z,15.47
2019-01-22T11:47:35.871Z,17.97
2019-01-22T11:50:05.632Z,19.13
2019-01-22T11:52:33.881Z,14.47
2019-01-22T11:55:02.104Z,20.20
2019-01-22T11:57:30.350Z,19.60
2019-01-22T11:59:58.573Z,17.60
2019-01-22T12:02:31.953Z,19.23
2019-01-22T12:04:56.697Z,21.03
2019-01-22T12:07:24.952Z,20.80
2019-01-22T12:09:53.174Z,21.50
2019-01-22T12:12:21.429Z,20.90
2019-01-22T12:14:49.652Z,20.77
2019-01-22T12:17:17.904Z,20.67
2019-01-22T12:19:46.131Z,21.47
2019-01-22T12:22:14.384Z,19.17
2019-01-22T12:24:42.604Z,18.27
2019-01-22T12:27:10.856Z,20.93
2019-01-22T12:29:39.164Z,22.50
2019-01-22T12:32:07.413Z,21.03
2019-01-22T12:34:35.637Z,21.30
2019-01-22T12:37:03.951Z,23.63
2019-01-22T12:39:32.173Z,24.43
2019-01-22T12:42:00.398Z,20.20
2019-01-22T12:44:28.651Z,20.63
2019-01-22T12:46:56.873Z,17.63
2019-01-22T12:49:25.151Z,18.50
2019-01-22T12:51:53.344Z,20.03
2019-01-22T12:54:21.596Z,18.57
2019-01-22T12:56:49.820Z,19.33
2019-01-22T12:59:18.082Z,17.10
2019-01-22T13:01:46.372Z,16.03
2019-01-22T13:04:14.625Z,17.00
2019-01-22T13:06:42.852Z,17.77
2019-01-22T13:09:11.180Z,16.93
2019-01-22T13:11:39.416Z,18.60
2019-01-22T13:14:07.736Z,16.87
2019-01-22T13:16:35.961Z,18.97
2019-01-22T13:19:04.279Z,18.47
2019-01-22T13:21:32.507Z,20.07
2019-01-22T13:24:00.757Z,21.90
2019-01-22T13:26:28.984Z,18.67
2019-01-22T13:28:57.232Z,18.63
2019-01-22T13:31:25.463Z,19.83
2019-01-22T13:33:53.780Z,20.77
2019-01-22T13:36:22.073Z,19.83
2019-01-22T13:38:50.396Z,23.10
2019-01-22T13:41:18.692Z,23.70
2019-01-22T13:43:46.949Z,19.77
2019-01-22T13:46:15.236Z,16.77
2019-01-22T13:48:43.493Z,17.50
2019-01-22T13:51:11.721Z,17.50
2019-01-22T13:53:40.036Z,22.73
2019-01-22T13:56:08.256Z,21.10
2019-01-22T13:58:36.508Z,17.33
2019-01-22T14:01:04.800Z,18.30
2019-01-22T14:03:33.151Z,16.57
2019-01-22T14:06:01.368Z,15.03
2019-01-22T14:08:29.588Z,16.00
2019-01-22T14:10:57.840Z,17.40
2019-01-22T14:13:26.066Z,16.43
2019-01-22T14:15:54.316Z,17.40
2019-01-22T14:18:22.604Z,16.27
2019-01-22T14:20:50.928Z,15.87
2019-01-22T14:23:19.173Z,17.90
2019-01-22T14:25:47.416Z,17.33
2019-01-22T14:28:15.645Z,17.10
2019-01-22T14:30:43.958Z,17.33
2019-01-22T14:33:12.249Z,16.23
2019-01-22T14:35:40.508Z,19.23
2019-01-22T14:38:08.800Z,18.80
2019-01-22T14:40:37.123Z,17.60
2019-01-22T14:43:05.341Z,15.43
2019-01-22T14:45:33.597Z,18.90
2019-01-22T14:48:01.816Z,18.60
2019-01-22T14:50:31.248Z,17.17
2019-01-22T14:52:59.473Z,14.83
2019-01-22T14:55:27.796Z,16.67
2019-01-22T14:57:56.084Z,16.80
2019-01-22T15:00:25.307Z,16.00
2019-01-22T15:02:54.105Z,16.60
2019-01-22T15:05:22.521Z,17.30
2019-01-22T15:07:50.812Z,18.10
2019-01-22T15:10:19.077Z,17.10
2019-01-22T15:12:48.772Z,17.57
2019-01-22T15:15:18.299Z,18.10
2019-01-22T15:17:46.592Z,18.67
2019-01-22T15:20:16.379Z,19.77
2019-01-22T15:22:44.606Z,18.60
2019-01-22T15:25:13.432Z,19.00
2019-01-22T15:27:41.739Z,19.50
2019-01-22T15:30:11.516Z,18.87
2019-01-22T15:32:39.740Z,21.73
2019-01-22T15:35:09.273Z,20.33
2019-01-22T15:37:37.501Z,22.13
2019-01-22T15:40:07.251Z,21.03
2019-01-22T15:42:35.505Z,18.57
2019-01-22T15:45:06.347Z,22.30
2019-01-22T15:47:34.601Z,22.93
2019-01-22T15:50:04.796Z,22.40
2019-01-22T15:52:33.141Z,22.20
2019-01-22T15:55:01.369Z,19.63
2019-01-22T15:57:29.621Z,21.77
2019-01-22T15:59:57.848Z,20.57
2019-01-22T16:02:26.095Z,22.07
2019-01-22T16:04:54.317Z,20.43
2019-01-22T16:07:22.569Z,19.93
2019-01-22T16:09:50.797Z,20.20
2019-01-22T16:12:19.044Z,22.33
2019-01-22T16:14:47.268Z,24.00
2019-01-22T16:17:15.588Z,22.63
2019-01-22T16:19:43.812Z,21.10
2019-01-22T16:22:12.064Z,20.30
2019-01-22T16:24:40.311Z,21.73
2019-01-22T16:27:08.604Z,23.03
2019-01-22T16:29:36.828Z,23.23
2019-01-22T16:32:05.083Z,20.50
2019-01-22T16:34:33.304Z,24.07
2019-01-22T16:37:01.560Z,23.50
2019-01-22T16:39:30.924Z,22.20
2019-01-22T16:41:59.311Z,23.97
2019-01-22T16:44:27.528Z,22.80
2019-01-22T16:46:55.785Z,21.63
2019-01-22T16:49:24.000Z,22.27
2019-01-22T16:51:52.229Z,23.90
2019-01-22T16:54:20.481Z,22.43
2019-01-22T16:56:48.713Z,20.73
2019-01-22T16:59:16.961Z,21.17
2019-01-22T17:01:45.192Z,21.10
2019-01-22T17:04:13.448Z,20.33
2019-01-22T17:06:41.671Z,19.43
2019-01-22T17:09:09.991Z,20.13
2019-01-22T17:11:38.216Z,20.30
2019-01-22T17:14:06.472Z,22.07
2019-01-22T17:16:34.687Z,20.93
2019-01-22T17:19:02.940Z,20.97
2019-01-22T17:21:31.164Z,23.00
2019-01-22T17:23:59.416Z,23.47
2019-01-22T17:26:27.636Z,22.07
2019-01-22T17:28:55.885Z,20.87
2019-01-22T17:31:34.767Z,22.43
2019-01-22T17:34:03.039Z,19.17
2019-01-22T17:36:31.232Z,21.87
2019-01-22T17:38:59.484Z,20.97
2019-01-22T17:41:27.709Z,20.33
2019-01-22T17:43:55.961Z,19.40
2019-01-22T17:46:24.256Z,19.80
2019-01-22T17:48:52.513Z,21.10
2019-01-22T17:51:20.736Z,18.80
2019-01-22T17:53:48.989Z,19.80
2019-01-22T17:56:17.217Z,19.13
2019-01-22T17:58:45.469Z,16.47
2019-01-22T18:01:13.693Z,20.00
2019-01-22T18:03:41.949Z,21.40
2019-01-22T18:06:10.182Z,18.40
2019-01-22T18:08:38.415Z,19.97
2019-01-22T18:11:06.640Z,19.83
2019-01-22T18:13:34.869Z,20.13
2019-01-22T18:16:03.121Z,21.57
2019-01-22T18:18:31.344Z,20.20
2019-01-22T18:20:59.597Z,19.03
2019-01-22T18:23:27.818Z,19.60
2019-01-22T18:25:56.067Z,19.73
2019-01-22T18:28:24.292Z,20.53
2019-01-22T18:30:52.548Z,21.77
2019-01-22T18:33:20.776Z,18.13
2019-01-22T18:35:49.100Z,16.80
2019-01-22T18:38:17.324Z,20.97
2019-01-22T18:40:45.580Z,18.40
2019-01-22T18:43:13.883Z,19.50
2019-01-22T18:45:42.199Z,19.10
2019-01-22T18:48:10.424Z,17.83
2019-01-22T18:50:38.676Z,16.70
2019-01-22T18:53:06.969Z,18.03
2019-01-22T18:55:35.288Z,17.07
2019-01-22T18:58:03.504Z,18.33
2019-01-22T19:00:31.752Z,18.13
2019-01-22T19:02:59.972Z,19.10
2019-01-22T19:05:28.219Z,21.73
2019-01-22T19:07:56.445Z,23.90
2019-01-22T19:10:28.244Z,29.20
2019-01-22T19:12:56.469Z,27.77
2019-01-22T19:15:24.792Z,22.00
2019-01-22T19:17:53.016Z,21.90
2019-01-22T19:20:21.436Z,21.13
2019-01-22T19:22:49.670Z,19.50
2019-01-22T19:25:22.380Z,21.47
2019-01-22T19:27:50.672Z,17.70
2019-01-22T19:30:21.202Z,19.10
2019-01-22T19:32:49.532Z,20.50
2019-01-22T19:35:18.257Z,20.90
2019-01-22T19:37:46.480Z,19.87
2019-01-22T19:40:15.716Z,19.50
2019-01-22T19:42:44.004Z,20.13
2019-01-22T19:45:13.792Z,17.57
2019-01-22T19:47:42.021Z,22.00
2019-01-22T19:50:11.745Z,20.30
2019-01-22T19:52:40.040Z,20.53
2019-01-22T19:55:08.860Z,19.50
2019-01-22T19:57:40.932Z,19.03
2019-01-22T20:00:08.593Z,21.13
2019-01-22T20:02:36.825Z,20.00
2019-01-22T20:05:06.245Z,20.00
2019-01-22T20:07:34.472Z,21.27
2019-01-22T20:10:02.791Z,26.27
2019-01-22T20:12:31.021Z,25.67
2019-01-22T20:14:59.245Z,23.90
2019-01-22T20:17:27.496Z,26.87
2019-01-22T20:19:55.720Z,25.40
2019-01-22T20:22:23.973Z,27.77
2019-01-22T20:24:52.195Z,21.70
2019-01-22T20:27:20.455Z,23.07
2019-01-22T20:29:48.672Z,21.57
2019-01-22T20:32:17.106Z,21.97
2019-01-22T20:34:45.344Z,23.73
2019-01-22T20:37:13.597Z,21.97
2019-01-22T20:39:41.824Z,21.10
2019-01-22T20:42:10.078Z,19.97
2019-01-22T20:44:38.304Z,20.87
2019-01-22T20:47:06.552Z,22.67
2019-01-22T20:49:34.780Z,22.50
2019-01-22T20:52:03.024Z,21.43
2019-01-22T20:54:31.248Z,22.20
2019-01-22T20:56:59.498Z,23.03
2019-01-22T20:59:27.716Z,21.10
2019-01-22T21:01:55.976Z,19.87
2019-01-22T21:04:24.197Z,15.20
2019-01-22T21:06:52.472Z,21.57
2019-01-22T21:09:20.692Z,19.47
2019-01-22T21:11:48.948Z,20.47
2019-01-22T21:14:17.168Z,21.80
2019-01-22T21:16:45.424Z,22.13
2019-01-22T21:19:13.650Z,22.60
2019-01-22T21:21:41.896Z,24.23
2019-01-22T21:24:10.116Z,20.20
2019-01-22T21:26:38.364Z,21.23
2019-01-22T21:29:06.591Z,21.83
2019-01-22T21:31:34.842Z,22.93
2019-01-22T21:34:03.060Z,24.13
2019-01-22T21:36:31.284Z,24.40
2019-01-22T21:38:59.541Z,24.10
2019-01-22T21:41:27.760Z,21.43
2019-01-22T21:43:56.017Z,22.23
2019-01-22T21:46:24.236Z,22.37
2019-01-22T21:48:52.488Z,24.00
2019-01-22T21:51:20.713Z,23.77
2019-01-22T21:53:48.964Z,21.30
2019-01-22T21:56:17.193Z,23.93
2019-01-22T21:58:45.441Z,21.60
2019-01-22T22:01:13.668Z,23.00
2019-01-22T22:03:41.922Z,24.53
2019-01-22T22:06:10.139Z,21.83
2019-01-22T22:08:38.392Z,21.97
2019-01-22T22:11:06.717Z,20.83
2019-01-22T22:13:34.969Z,20.47
2019-01-22T22:16:03.188Z,20.83
2019-01-22T22:18:31.441Z,23.30
2019-01-22T22:20:59.693Z,20.37
2019-01-22T22:23:27.912Z,23.10
2019-01-22T22:25:56.164Z,22.33
2019-01-22T22:28:24.398Z,22.37
2019-01-22T22:30:52.648Z,22.63
2019-01-22T22:33:20.871Z,23.63
2019-01-22T22:35:49.120Z,19.77
2019-01-22T22:38:17.340Z,19.57
2019-01-22T22:40:45.598Z,19.97
2019-01-22T22:43:14.618Z,21.70
2019-01-22T22:45:42.969Z,22.53
2019-01-22T22:48:11.200Z,21.30
2019-01-22T22:50:39.467Z,23.00
2019-01-22T22:53:07.690Z,24.10
2019-01-22T22:55:35.918Z,23.70
2019-01-22T22:58:04.238Z,24.27
2019-01-22T23:00:34.769Z,21.80
2019-01-22T23:03:03.858Z,21.77
2019-01-22T23:05:32.153Z,23.23
2019-01-22T23:08:00.404Z,24.90
2019-01-22T23:10:28.795Z,20.87
2019-01-22T23:12:57.051Z,26.57
2019-01-22T23:15:25.340Z,20.50
2019-01-22T23:17:53.592Z,24.10
2019-01-22T23:20:21.860Z,23.83
2019-01-22T23:22:50.252Z,21.80
2019-01-22T23:25:18.577Z,20.33
2019-01-22T23:27:46.872Z,23.63
2019-01-22T23:30:15.792Z,24.10
2019-01-22T23:32:44.088Z,22.57
2019-01-22T23:35:12.507Z,22.57
2019-01-22T23:37:40.759Z,21.53
2019-01-22T23:40:10.860Z,14.30
2019-01-22T23:42:39.076Z,18.17
2019-01-22T23:45:08.899Z,23.60
2019-01-22T23:47:37.128Z,23.13
2019-01-22T23:50:06.952Z,20.57
2019-01-22T23:52:35.167Z,21.30
2019-01-22T23:55:04.583Z,19.93
2019-01-22T23:57:32.810Z,22.13
